sensor_id;sensor_type;location;lat;lon;timestamp;P1;durP1;ratioP1;P2;durP2;ratioP2
43154;SDS011;34212;51.018;13.586;2024-03-06T00:03:28;26.92;;;16.67;;
43154;SDS011;34212;51.018;13.586;2024-03-06T00:08:30;24.58;;;16.45;;
43154;SDS011;34212;51.018;13.586;2024-03-06T00:13:32;26.20;;;16.33;;
43154;SDS011;34212;51.018;13.586;2024-03-06T00:18:33;26.55;;;16.65;;
43154;SDS011;34212;51.018;13.586;2024-03-06T00:23:35;33.08;;;21.80;;
43154;SDS011;34212;51.018;13.586;2024-03-06T00:28:38;45.00;;;28.77;;
43154;SDS011;34212;51.018;13.586;2024-03-06T00:33:40;35.65;;;23.15;;
43154;SDS011;34212;51.018;13.586;2024-03-06T00:38:42;34.67;;;21.83;;
43154;SDS011;34212;51.018;13.586;2024-03-06T00:43:44;33.23;;;20.50;;
43154;SDS011;34212;51.018;13.586;2024-03-06T00:48:45;26.40;;;17.23;;
43154;SDS011;34212;51.018;13.586;2024-03-06T00:53:47;29.67;;;17.48;;
43154;SDS011;34212;51.018;13.586;2024-03-06T00:58:48;28.27;;;17.35;;
43154;SDS011;34212;51.018;13.586;2024-03-06T01:03:50;26.98;;;16.45;;
43154;SDS011;34212;51.018;13.586;2024-03-06T01:08:51;28.27;;;17.42;;
43154;SDS011;34212;51.018;13.586;2024-03-06T01:13:53;28.23;;;16.17;;
43154;SDS011;34212;51.018;13.586;2024-03-06T01:18:55;24.92;;;16.45;;
43154;SDS011;34212;51.018;13.586;2024-03-06T01:23:56;27.10;;;16.65;;
43154;SDS011;34212;51.018;13.586;2024-03-06T01:28:58;23.88;;;15.73;;
43154;SDS011;34212;51.018;13.586;2024-03-06T01:33:59;25.73;;;15.85;;
43154;SDS011;34212;51.018;13.586;2024-03-06T01:39:01;27.20;;;16.20;;
43154;SDS011;34212;51.018;13.586;2024-03-06T01:44:03;27.00;;;16.20;;
43154;SDS011;34212;51.018;13.586;2024-03-06T01:49:05;25.70;;;15.38;;
43154;SDS011;34212;51.018;13.586;2024-03-06T01:54:07;29.38;;;17.05;;
43154;SDS011;34212;51.018;13.586;2024-03-06T01:59:10;26.70;;;17.77;;
43154;SDS011;34212;51.018;13.586;2024-03-06T02:04:25;26.13;;;16.95;;
43154;SDS011;34212;51.018;13.586;2024-03-06T02:09:29;27.55;;;17.40;;
43154;SDS011;34212;51.018;13.586;2024-03-06T02:14:30;24.60;;;17.00;;
43154;SDS011;34212;51.018;13.586;2024-03-06T02:19:41;27.33;;;15.77;;
43154;SDS011;34212;51.018;13.586;2024-03-06T02:24:46;26.02;;;16.67;;
43154;SDS011;34212;51.018;13.586;2024-03-06T02:29:49;27.25;;;17.90;;
43154;SDS011;34212;51.018;13.586;2024-03-06T02:34:50;25.42;;;16.25;;
43154;SDS011;34212;51.018;13.586;2024-03-06T02:39:52;31.13;;;17.05;;
43154;SDS011;34212;51.018;13.586;2024-03-06T02:44:54;30.88;;;17.42;;
43154;SDS011;34212;51.018;13.586;2024-03-06T02:49:55;27.45;;;16.48;;
43154;SDS011;34212;51.018;13.586;2024-03-06T02:54:57;28.45;;;17.58;;
43154;SDS011;34212;51.018;13.586;2024-03-06T02:59:59;26.92;;;16.48;;
43154;SDS011;34212;51.018;13.586;2024-03-06T03:05:00;31.35;;;19.08;;
43154;SDS011;34212;51.018;13.586;2024-03-06T03:10:02;29.75;;;17.42;;
43154;SDS011;34212;51.018;13.586;2024-03-06T03:15:05;29.40;;;17.88;;
43154;SDS011;34212;51.018;13.586;2024-03-06T03:20:08;23.85;;;16.48;;
43154;SDS011;34212;51.018;13.586;2024-03-06T03:25:13;27.92;;;17.40;;
43154;SDS011;34212;51.018;13.586;2024-03-06T03:30:15;33.83;;;19.00;;
43154;SDS011;34212;51.018;13.586;2024-03-06T03:35:18;31.67;;;18.55;;
43154;SDS011;34212;51.018;13.586;2024-03-06T03:40:22;35.70;;;19.92;;
43154;SDS011;34212;51.018;13.586;2024-03-06T03:45:24;29.10;;;18.30;;
43154;SDS011;34212;51.018;13.586;2024-03-06T03:50:25;29.63;;;18.08;;
43154;SDS011;34212;51.018;13.586;2024-03-06T03:55:27;33.35;;;18.92;;
43154;SDS011;34212;51.018;13.586;2024-03-06T04:00:28;37.47;;;20.98;;
43154;SDS011;34212;51.018;13.586;2024-03-06T04:10:33;33.30;;;18.73;;
43154;SDS011;34212;51.018;13.586;2024-03-06T04:15:35;33.75;;;18.92;;
43154;SDS011;34212;51.018;13.586;2024-03-06T04:20:36;33.95;;;20.77;;
43154;SDS011;34212;51.018;13.586;2024-03-06T04:25:38;31.20;;;20.05;;
43154;SDS011;34212;51.018;13.586;2024-03-06T04:30:41;31.92;;;20.30;;
43154;SDS011;34212;51.018;13.586;2024-03-06T04:35:42;45.97;;;26.98;;
43154;SDS011;34212;51.018;13.586;2024-03-06T04:40:44;33.33;;;20.00;;
43154;SDS011;34212;51.018;13.586;2024-03-06T04:45:46;33.88;;;20.42;;
43154;SDS011;34212;51.018;13.586;2024-03-06T04:50:47;30.40;;;18.90;;
43154;SDS011;34212;51.018;13.586;2024-03-06T04:55:53;30.57;;;19.27;;
43154;SDS011;34212;51.018;13.586;2024-03-06T05:00:54;26.60;;;18.75;;
43154;SDS011;34212;51.018;13.586;2024-03-06T05:05:56;32.15;;;19.52;;
43154;SDS011;34212;51.018;13.586;2024-03-06T05:11:16;97.63;;;48.20;;
43154;SDS011;34212;51.018;13.586;2024-03-06T05:16:35;40.30;;;25.35;;
43154;SDS011;34212;51.018;13.586;2024-03-06T05:21:54;36.08;;;21.63;;
43154;SDS011;34212;51.018;13.586;2024-03-06T05:27:13;38.00;;;22.80;;
43154;SDS011;34212;51.018;13.586;2024-03-06T05:32:35;33.83;;;19.77;;
43154;SDS011;34212;51.018;13.586;2024-03-06T05:37:54;37.15;;;22.38;;
43154;SDS011;34212;51.018;13.586;2024-03-06T05:43:13;29.80;;;18.70;;
43154;SDS011;34212;51.018;13.586;2024-03-06T05:48:32;35.53;;;22.02;;
43154;SDS011;34212;51.018;13.586;2024-03-06T05:53:51;33.10;;;20.13;;
43154;SDS011;34212;51.018;13.586;2024-03-06T05:59:10;34.20;;;20.00;;
43154;SDS011;34212;51.018;13.586;2024-03-06T06:04:13;34.03;;;19.98;;
43154;SDS011;34212;51.018;13.586;2024-03-06T06:09:15;31.50;;;18.50;;
43154;SDS011;34212;51.018;13.586;2024-03-06T06:14:17;30.83;;;19.48;;
43154;SDS011;34212;51.018;13.586;2024-03-06T06:19:18;52.67;;;25.38;;
43154;SDS011;34212;51.018;13.586;2024-03-06T06:24:20;37.03;;;20.10;;
43154;SDS011;34212;51.018;13.586;2024-03-06T06:29:22;35.95;;;20.65;;
43154;SDS011;34212;51.018;13.586;2024-03-06T06:34:23;36.38;;;20.27;;
43154;SDS011;34212;51.018;13.586;2024-03-06T06:39:28;31.83;;;20.50;;
43154;SDS011;34212;51.018;13.586;2024-03-06T06:44:30;34.92;;;21.05;;
43154;SDS011;34212;51.018;13.586;2024-03-06T06:49:31;34.08;;;20.73;;
43154;SDS011;34212;51.018;13.586;2024-03-06T06:54:34;35.80;;;20.15;;
43154;SDS011;34212;51.018;13.586;2024-03-06T06:59:36;32.92;;;20.63;;
43154;SDS011;34212;51.018;13.586;2024-03-06T07:04:37;38.03;;;22.88;;
43154;SDS011;34212;51.018;13.586;2024-03-06T07:09:39;34.63;;;21.23;;
43154;SDS011;34212;51.018;13.586;2024-03-06T07:14:40;42.08;;;23.55;;
43154;SDS011;34212;51.018;13.586;2024-03-06T07:19:42;37.55;;;22.80;;
43154;SDS011;34212;51.018;13.586;2024-03-06T07:24:44;37.05;;;22.42;;
43154;SDS011;34212;51.018;13.586;2024-03-06T07:29:45;42.20;;;24.42;;
43154;SDS011;34212;51.018;13.586;2024-03-06T07:34:47;37.28;;;23.42;;
43154;SDS011;34212;51.018;13.586;2024-03-06T07:39:48;44.03;;;24.90;;
43154;SDS011;34212;51.018;13.586;2024-03-06T07:44:54;41.08;;;25.17;;
43154;SDS011;34212;51.018;13.586;2024-03-06T07:49:55;38.78;;;24.13;;
43154;SDS011;34212;51.018;13.586;2024-03-06T07:54:57;45.80;;;25.75;;
43154;SDS011;34212;51.018;13.586;2024-03-06T07:59:59;45.28;;;26.40;;
43154;SDS011;34212;51.018;13.586;2024-03-06T08:05:01;42.65;;;25.40;;
43154;SDS011;34212;51.018;13.586;2024-03-06T08:10:03;44.65;;;24.75;;
43154;SDS011;34212;51.018;13.586;2024-03-06T08:15:07;44.85;;;25.55;;
43154;SDS011;34212;51.018;13.586;2024-03-06T08:20:11;45.38;;;25.85;;
43154;SDS011;34212;51.018;13.586;2024-03-06T08:25:13;46.97;;;27.93;;
43154;SDS011;34212;51.018;13.586;2024-03-06T08:30:14;45.33;;;27.33;;
43154;SDS011;34212;51.018;13.586;2024-03-06T08:35:16;49.17;;;26.95;;
43154;SDS011;34212;51.018;13.586;2024-03-06T08:40:22;47.72;;;27.50;;
43154;SDS011;34212;51.018;13.586;2024-03-06T08:45:24;47.13;;;27.47;;
43154;SDS011;34212;51.018;13.586;2024-03-06T08:50:26;46.58;;;27.58;;
43154;SDS011;34212;51.018;13.586;2024-03-06T08:55:27;47.25;;;26.50;;
43154;SDS011;34212;51.018;13.586;2024-03-06T09:00:29;44.17;;;25.13;;
43154;SDS011;34212;51.018;13.586;2024-03-06T09:05:31;49.95;;;26.33;;
43154;SDS011;34212;51.018;13.586;2024-03-06T09:10:32;40.75;;;24.58;;
43154;SDS011;34212;51.018;13.586;2024-03-06T09:15:34;42.67;;;24.73;;
43154;SDS011;34212;51.018;13.586;2024-03-06T09:20:36;42.30;;;25.15;;
43154;SDS011;34212;51.018;13.586;2024-03-06T09:25:37;40.17;;;23.10;;
43154;SDS011;34212;51.018;13.586;2024-03-06T09:30:39;43.35;;;25.48;;
43154;SDS011;34212;51.018;13.586;2024-03-06T09:35:40;39.80;;;22.92;;
43154;SDS011;34212;51.018;13.586;2024-03-06T09:40:46;38.90;;;23.50;;
43154;SDS011;34212;51.018;13.586;2024-03-06T09:45:48;42.33;;;22.75;;
43154;SDS011;34212;51.018;13.586;2024-03-06T09:50:52;40.70;;;23.83;;
43154;SDS011;34212;51.018;13.586;2024-03-06T09:55:56;34.67;;;22.10;;
43154;SDS011;34212;51.018;13.586;2024-03-06T10:00:59;41.35;;;25.15;;
43154;SDS011;34212;51.018;13.586;2024-03-06T10:06:04;38.50;;;22.83;;
43154;SDS011;34212;51.018;13.586;2024-03-06T10:11:11;36.00;;;22.98;;
43154;SDS011;34212;51.018;13.586;2024-03-06T10:16:13;32.33;;;20.80;;
43154;SDS011;34212;51.018;13.586;2024-03-06T10:21:15;33.35;;;21.73;;
43154;SDS011;34212;51.018;13.586;2024-03-06T10:31:27;34.40;;;22.60;;
43154;SDS011;34212;51.018;13.586;2024-03-06T10:36:33;38.17;;;23.92;;
43154;SDS011;34212;51.018;13.586;2024-03-06T10:41:36;36.88;;;24.13;;
43154;SDS011;34212;51.018;13.586;2024-03-06T10:46:43;38.78;;;24.65;;
43154;SDS011;34212;51.018;13.586;2024-03-06T10:51:48;35.42;;;23.00;;
43154;SDS011;34212;51.018;13.586;2024-03-06T10:56:51;39.13;;;23.77;;
43154;SDS011;34212;51.018;13.586;2024-03-06T11:01:54;39.13;;;25.88;;
43154;SDS011;34212;51.018;13.586;2024-03-06T11:06:57;40.70;;;26.15;;
43154;SDS011;34212;51.018;13.586;2024-03-06T11:12:01;38.42;;;26.58;;
43154;SDS011;34212;51.018;13.586;2024-03-06T11:22:12;37.45;;;24.70;;
43154;SDS011;34212;51.018;13.586;2024-03-06T11:27:13;35.53;;;24.00;;
43154;SDS011;34212;51.018;13.586;2024-03-06T11:37:19;35.45;;;24.35;;
43154;SDS011;34212;51.018;13.586;2024-03-06T11:42:32;35.53;;;23.80;;
43154;SDS011;34212;51.018;13.586;2024-03-06T11:47:55;35.72;;;24.35;;
43154;SDS011;34212;51.018;13.586;2024-03-06T11:52:57;38.63;;;24.15;;
43154;SDS011;34212;51.018;13.586;2024-03-06T11:57:59;36.72;;;23.45;;
43154;SDS011;34212;51.018;13.586;2024-03-06T12:03:00;38.13;;;23.88;;
43154;SDS011;34212;51.018;13.586;2024-03-06T12:08:02;34.65;;;22.55;;
43154;SDS011;34212;51.018;13.586;2024-03-06T12:13:04;36.67;;;23.92;;
43154;SDS011;34212;51.018;13.586;2024-03-06T12:18:06;33.10;;;22.80;;
43154;SDS011;34212;51.018;13.586;2024-03-06T12:23:08;34.25;;;23.98;;
43154;SDS011;34212;51.018;13.586;2024-03-06T12:28:10;39.63;;;23.73;;
43154;SDS011;34212;51.018;13.586;2024-03-06T12:33:15;34.60;;;22.60;;
43154;SDS011;34212;51.018;13.586;2024-03-06T12:38:18;33.88;;;21.58;;
43154;SDS011;34212;51.018;13.586;2024-03-06T12:43:19;36.08;;;21.50;;
43154;SDS011;34212;51.018;13.586;2024-03-06T12:48:21;36.90;;;23.20;;
43154;SDS011;34212;51.018;13.586;2024-03-06T12:53:23;30.00;;;19.77;;
43154;SDS011;34212;51.018;13.586;2024-03-06T12:58:24;31.30;;;20.58;;
43154;SDS011;34212;51.018;13.586;2024-03-06T13:03:26;30.75;;;20.30;;
43154;SDS011;34212;51.018;13.586;2024-03-06T13:08:27;29.40;;;19.80;;
43154;SDS011;34212;51.018;13.586;2024-03-06T13:13:29;31.15;;;21.05;;
43154;SDS011;34212;51.018;13.586;2024-03-06T13:18:33;32.63;;;22.02;;
43154;SDS011;34212;51.018;13.586;2024-03-06T13:23:35;33.40;;;21.45;;
43154;SDS011;34212;51.018;13.586;2024-03-06T13:28:37;29.65;;;19.48;;
43154;SDS011;34212;51.018;13.586;2024-03-06T13:33:39;27.48;;;18.02;;
43154;SDS011;34212;51.018;13.586;2024-03-06T13:38:41;27.58;;;19.17;;
43154;SDS011;34212;51.018;13.586;2024-03-06T13:43:42;29.50;;;19.02;;
43154;SDS011;34212;51.018;13.586;2024-03-06T13:48:44;26.17;;;19.33;;
43154;SDS011;34212;51.018;13.586;2024-03-06T13:53:45;28.13;;;19.70;;
43154;SDS011;34212;51.018;13.586;2024-03-06T13:58:47;23.27;;;16.95;;
43154;SDS011;34212;51.018;13.586;2024-03-06T14:03:48;24.92;;;17.27;;
43154;SDS011;34212;51.018;13.586;2024-03-06T14:08:51;23.30;;;16.98;;
43154;SDS011;34212;51.018;13.586;2024-03-06T14:13:53;23.92;;;17.60;;
43154;SDS011;34212;51.018;13.586;2024-03-06T14:18:55;24.93;;;17.33;;
43154;SDS011;34212;51.018;13.586;2024-03-06T14:23:58;24.77;;;17.13;;
43154;SDS011;34212;51.018;13.586;2024-03-06T14:29:01;22.67;;;16.90;;
43154;SDS011;34212;51.018;13.586;2024-03-06T14:34:07;23.98;;;15.57;;
43154;SDS011;34212;51.018;13.586;2024-03-06T14:39:09;19.63;;;15.05;;
43154;SDS011;34212;51.018;13.586;2024-03-06T14:44:11;23.00;;;16.08;;
43154;SDS011;34212;51.018;13.586;2024-03-06T14:49:15;26.40;;;16.45;;
43154;SDS011;34212;51.018;13.586;2024-03-06T14:54:17;23.23;;;14.85;;
43154;SDS011;34212;51.018;13.586;2024-03-06T14:59:19;18.88;;;14.07;;
43154;SDS011;34212;51.018;13.586;2024-03-06T15:04:21;21.63;;;12.97;;
43154;SDS011;34212;51.018;13.586;2024-03-06T15:09:22;21.53;;;13.73;;
43154;SDS011;34212;51.018;13.586;2024-03-06T15:14:27;18.95;;;14.40;;
43154;SDS011;34212;51.018;13.586;2024-03-06T15:19:30;22.50;;;15.70;;
43154;SDS011;34212;51.018;13.586;2024-03-06T15:24:31;21.55;;;14.05;;
43154;SDS011;34212;51.018;13.586;2024-03-06T15:29:33;20.38;;;14.55;;
43154;SDS011;34212;51.018;13.586;2024-03-06T15:34:35;21.23;;;13.65;;
43154;SDS011;34212;51.018;13.586;2024-03-06T15:39:36;20.38;;;14.13;;
43154;SDS011;34212;51.018;13.586;2024-03-06T15:44:38;19.80;;;13.57;;
43154;SDS011;34212;51.018;13.586;2024-03-06T15:49:40;17.03;;;12.30;;
43154;SDS011;34212;51.018;13.586;2024-03-06T15:54:41;19.58;;;12.80;;
43154;SDS011;34212;51.018;13.586;2024-03-06T15:59:43;19.90;;;11.98;;
43154;SDS011;34212;51.018;13.586;2024-03-06T16:04:45;19.60;;;12.27;;
43154;SDS011;34212;51.018;13.586;2024-03-06T16:09:46;21.38;;;11.30;;
43154;SDS011;34212;51.018;13.586;2024-03-06T16:14:48;16.33;;;11.00;;
43154;SDS011;34212;51.018;13.586;2024-03-06T16:19:50;19.35;;;11.80;;
43154;SDS011;34212;51.018;13.586;2024-03-06T16:24:51;16.27;;;10.52;;
43154;SDS011;34212;51.018;13.586;2024-03-06T16:29:54;18.17;;;11.38;;
43154;SDS011;34212;51.018;13.586;2024-03-06T16:34:56;16.70;;;10.55;;
43154;SDS011;34212;51.018;13.586;2024-03-06T16:39:58;16.98;;;10.32;;
43154;SDS011;34212;51.018;13.586;2024-03-06T16:44:59;15.90;;;10.77;;
43154;SDS011;34212;51.018;13.586;2024-03-06T16:50:01;14.45;;;10.57;;
43154;SDS011;34212;51.018;13.586;2024-03-06T16:55:02;16.48;;;11.15;;
43154;SDS011;34212;51.018;13.586;2024-03-06T17:00:05;15.50;;;10.83;;
43154;SDS011;34212;51.018;13.586;2024-03-06T17:05:09;15.60;;;10.75;;
43154;SDS011;34212;51.018;13.586;2024-03-06T17:10:11;15.63;;;11.80;;
43154;SDS011;34212;51.018;13.586;2024-03-06T17:15:14;14.37;;;11.43;;
43154;SDS011;34212;51.018;13.586;2024-03-06T17:20:16;19.58;;;11.82;;
43154;SDS011;34212;51.018;13.586;2024-03-06T17:25:18;15.35;;;11.50;;
43154;SDS011;34212;51.018;13.586;2024-03-06T17:30:19;17.83;;;11.82;;
43154;SDS011;34212;51.018;13.586;2024-03-06T17:35:21;17.60;;;9.73;;
43154;SDS011;34212;51.018;13.586;2024-03-06T17:40:23;14.40;;;9.45;;
43154;SDS011;34212;51.018;13.586;2024-03-06T17:45:24;14.20;;;10.57;;
43154;SDS011;34212;51.018;13.586;2024-03-06T17:50:26;15.43;;;11.52;;
43154;SDS011;34212;51.018;13.586;2024-03-06T17:55:28;17.95;;;11.95;;
43154;SDS011;34212;51.018;13.586;2024-03-06T18:00:29;15.55;;;11.25;;
43154;SDS011;34212;51.018;13.586;2024-03-06T18:05:31;15.63;;;11.68;;
43154;SDS011;34212;51.018;13.586;2024-03-06T18:10:33;14.13;;;10.27;;
43154;SDS011;34212;51.018;13.586;2024-03-06T18:15:34;14.00;;;10.75;;
43154;SDS011;34212;51.018;13.586;2024-03-06T18:20:36;14.93;;;11.15;;
43154;SDS011;34212;51.018;13.586;2024-03-06T18:25:38;14.77;;;11.57;;
43154;SDS011;34212;51.018;13.586;2024-03-06T18:30:40;13.27;;;10.47;;
43154;SDS011;34212;51.018;13.586;2024-03-06T18:35:42;14.95;;;10.98;;
43154;SDS011;34212;51.018;13.586;2024-03-06T18:40:44;18.40;;;11.35;;
43154;SDS011;34212;51.018;13.586;2024-03-06T18:45:45;17.70;;;11.27;;
43154;SDS011;34212;51.018;13.586;2024-03-06T18:50:47;16.27;;;11.43;;
43154;SDS011;34212;51.018;13.586;2024-03-06T18:55:49;13.07;;;10.60;;
43154;SDS011;34212;51.018;13.586;2024-03-06T19:00:50;15.10;;;10.48;;
43154;SDS011;34212;51.018;13.586;2024-03-06T19:05:52;17.92;;;12.45;;
43154;SDS011;34212;51.018;13.586;2024-03-06T19:10:56;16.35;;;11.65;;
43154;SDS011;34212;51.018;13.586;2024-03-06T19:15:58;17.30;;;12.02;;
43154;SDS011;34212;51.018;13.586;2024-03-06T19:21:00;15.30;;;10.93;;
43154;SDS011;34212;51.018;13.586;2024-03-06T19:26:02;16.83;;;11.25;;
43154;SDS011;34212;51.018;13.586;2024-03-06T19:31:03;15.82;;;11.52;;
43154;SDS011;34212;51.018;13.586;2024-03-06T19:36:05;15.07;;;10.88;;
43154;SDS011;34212;51.018;13.586;2024-03-06T19:41:06;16.48;;;11.73;;
43154;SDS011;34212;51.018;13.586;2024-03-06T19:46:08;16.98;;;12.35;;
43154;SDS011;34212;51.018;13.586;2024-03-06T19:51:09;18.90;;;13.23;;
43154;SDS011;34212;51.018;13.586;2024-03-06T19:56:15;16.88;;;12.52;;
43154;SDS011;34212;51.018;13.586;2024-03-06T20:01:17;17.47;;;13.17;;
43154;SDS011;34212;51.018;13.586;2024-03-06T20:06:18;19.83;;;11.95;;
43154;SDS011;34212;51.018;13.586;2024-03-06T20:11:20;16.17;;;12.00;;
43154;SDS011;34212;51.018;13.586;2024-03-06T20:16:22;18.23;;;11.77;;
43154;SDS011;34212;51.018;13.586;2024-03-06T20:21:24;19.02;;;12.57;;
43154;SDS011;34212;51.018;13.586;2024-03-06T20:26:26;20.77;;;11.90;;
43154;SDS011;34212;51.018;13.586;2024-03-06T20:31:27;18.88;;;11.73;;
43154;SDS011;34212;51.018;13.586;2024-03-06T20:36:29;18.10;;;12.52;;
43154;SDS011;34212;51.018;13.586;2024-03-06T20:41:31;18.73;;;12.55;;
43154;SDS011;34212;51.018;13.586;2024-03-06T20:46:32;18.85;;;12.65;;
43154;SDS011;34212;51.018;13.586;2024-03-06T20:51:34;18.33;;;12.60;;
43154;SDS011;34212;51.018;13.586;2024-03-06T20:56:36;17.55;;;11.82;;
43154;SDS011;34212;51.018;13.586;2024-03-06T21:01:38;16.87;;;12.40;;
43154;SDS011;34212;51.018;13.586;2024-03-06T21:06:39;15.05;;;11.43;;
43154;SDS011;34212;51.018;13.586;2024-03-06T21:11:41;16.40;;;11.57;;
43154;SDS011;34212;51.018;13.586;2024-03-06T21:16:42;17.58;;;12.20;;
43154;SDS011;34212;51.018;13.586;2024-03-06T21:21:44;19.50;;;12.23;;
43154;SDS011;34212;51.018;13.586;2024-03-06T21:26:46;18.60;;;12.48;;
43154;SDS011;34212;51.018;13.586;2024-03-06T21:31:49;19.00;;;12.77;;
43154;SDS011;34212;51.018;13.586;2024-03-06T21:36:50;19.13;;;12.63;;
43154;SDS011;34212;51.018;13.586;2024-03-06T21:41:52;18.98;;;13.35;;
43154;SDS011;34212;51.018;13.586;2024-03-06T21:46:54;18.33;;;12.32;;
43154;SDS011;34212;51.018;13.586;2024-03-06T21:51:55;18.20;;;13.07;;
43154;SDS011;34212;51.018;13.586;2024-03-06T21:56:57;20.50;;;13.35;;
43154;SDS011;34212;51.018;13.586;2024-03-06T22:01:58;20.02;;;13.45;;
43154;SDS011;34212;51.018;13.586;2024-03-06T22:07:00;23.80;;;14.05;;
43154;SDS011;34212;51.018;13.586;2024-03-06T22:12:01;21.95;;;12.80;;
43154;SDS011;34212;51.018;13.586;2024-03-06T22:17:04;17.58;;;12.68;;
43154;SDS011;34212;51.018;13.586;2024-03-06T22:22:05;20.50;;;13.68;;
43154;SDS011;34212;51.018;13.586;2024-03-06T22:27:07;18.35;;;13.30;;
43154;SDS011;34212;51.018;13.586;2024-03-06T22:32:09;21.58;;;14.00;;
43154;SDS011;34212;51.018;13.586;2024-03-06T22:37:11;22.02;;;13.57;;
43154;SDS011;34212;51.018;13.586;2024-03-06T22:42:12;20.80;;;14.18;;
43154;SDS011;34212;51.018;13.586;2024-03-06T22:47:14;20.98;;;13.32;;
43154;SDS011;34212;51.018;13.586;2024-03-06T22:52:15;20.95;;;13.80;;
43154;SDS011;34212;51.018;13.586;2024-03-06T22:57:17;20.45;;;14.10;;
43154;SDS011;34212;51.018;13.586;2024-03-06T23:02:18;20.85;;;15.20;;
43154;SDS011;34212;51.018;13.586;2024-03-06T23:07:20;19.35;;;14.00;;
43154;SDS011;34212;51.018;13.586;2024-03-06T23:12:21;19.77;;;13.48;;
43154;SDS011;34212;51.018;13.586;2024-03-06T23:17:23;20.83;;;13.80;;
43154;SDS011;34212;51.018;13.586;2024-03-06T23:22:25;24.40;;;14.27;;
43154;SDS011;34212;51.018;13.586;2024-03-06T23:27:28;25.48;;;15.10;;
43154;SDS011;34212;51.018;13.586;2024-03-06T23:32:29;21.70;;;14.30;;
43154;SDS011;34212;51.018;13.586;2024-03-06T23:37:31;25.08;;;14.68;;
43154;SDS011;34212;51.018;13.586;2024-03-06T23:42:34;27.65;;;15.55;;
43154;SDS011;34212;51.018;13.586;2024-03-06T23:47:37;25.80;;;15.07;;
43154;SDS011;34212;51.018;13.586;2024-03-06T23:52:39;28.08;;;15.50;;
43154;SDS011;34212;51.018;13.586;2024-03-06T23:57:41;24.20;;;15.30;;
